Time;durP1;ratioP1;P1;durP2;ratioP2;P2;SDS_P1;SDS_P2;PMS_P1;PMS_P2;Temp;Humidity;BMP_temperature;BMP_pressure;BME280_temperature;BME280_humidity;BME280_pressure;Samples;Min_cycle;Max_cycle;Signal;HPM_P1;HPM_P2
2023/10/05 00:01:30;;;;;;;11.57;2.40;;;13.10;99.90;;;;;;5057031;28;20044;-72
2023/10/05 00:03:56;;;;;;;11.88;2.60;;;13.00;99.90;;;;;;5039004;28;20040;-72
2023/10/05 00:06:25;;;;;;;13.02;2.67;;;13.10;99.90;;;;;;5054906;28;20045;-66
2023/10/05 00:08:56;;;;;;;12.60;2.70;;;13.00;99.90;;;;;;5054388;28;20045;-65
2023/10/05 00:11:29;;;;;;;11.85;2.95;;;13.00;99.90;;;;;;5037550;28;20041;-65
2023/10/05 00:14:01;;;;;;;9.52;2.55;;;13.00;99.90;;;;;;5037585;28;20124;-65
2023/10/05 00:16:37;;;;;;;10.38;2.80;;;13.00;99.90;;;;;;5036556;28;20041;-65
2023/10/05 00:19:11;;;;;;;13.13;2.90;;;13.00;99.90;;;;;;5022261;28;20041;-65
2023/10/05 00:21:50;;;;;;;8.55;2.50;;;12.90;99.90;;;;;;5054085;28;20036;-65
2023/10/05 00:24:28;;;;;;;11.48;2.80;;;12.90;99.90;;;;;;5037821;28;20052;-65
2023/10/05 00:26:56;;;;;;;11.35;2.88;;;13.00;99.90;;;;;;5053785;28;20053;-66
2023/10/05 00:29:28;;;;;;;13.65;2.90;;;13.00;99.90;;;;;;5037367;28;20055;-66
2023/10/05 00:32:00;;;;;;;11.73;2.95;;;12.90;99.90;;;;;;5038562;28;20380;-66
2023/10/05 00:34:27;;;;;;;10.73;2.83;;;13.00;99.90;;;;;;5037579;28;20072;-66
2023/10/05 00:36:59;;;;;;;11.52;3.00;;;13.00;99.90;;;;;;5037368;28;20049;-66
2023/10/05 00:39:26;;;;;;;;;;;13.00;99.90;;;;;;5054158;28;20105;-66
2023/10/05 00:44:35;;;;;;;9.30;2.80;;;13.00;99.90;;;;;;5038756;28;20136;-66
2023/10/05 00:47:05;;;;;;;11.45;3.17;;;13.00;99.90;;;;;;5037249;28;20081;-66
2023/10/05 00:49:45;;;;;;;11.40;2.65;;;13.00;99.90;;;;;;5037798;28;20130;-66
2023/10/05 00:52:18;;;;;;;12.63;3.30;;;13.10;99.90;;;;;;5022506;28;20393;-66
2023/10/05 00:54:50;;;;;;;10.70;3.08;;;13.00;99.90;;;;;;5036849;28;20036;-66
2023/10/05 00:57:24;;;;;;;11.82;3.20;;;13.00;99.90;;;;;;5053387;28;20064;-66
2023/10/05 01:02:31;;;;;;;12.23;3.08;;;13.00;99.90;;;;;;5054458;28;20051;-65
2023/10/05 01:05:01;;;;;;;9.98;2.78;;;13.00;99.90;;;;;;5036565;28;20123;-65
2023/10/05 01:07:43;;;;;;;11.20;3.08;;;13.00;99.90;;;;;;5036901;28;20041;-66
2023/10/05 01:12:53;;;;;;;11.38;3.05;;;13.00;99.90;;;;;;5053412;28;20041;-66
2023/10/05 01:15:22;;;;;;;10.38;3.10;;;13.00;99.90;;;;;;5036467;28;20053;-68
2023/10/05 01:17:52;;;;;;;10.57;2.88;;;13.00;99.90;;;;;;5036360;28;20044;-65
2023/10/05 01:22:47;;;;;;;10.15;3.05;;;13.00;99.90;;;;;;5019902;28;20053;-66
2023/10/05 01:25:14;;;;;;;10.63;3.00;;;13.00;99.90;;;;;;5052837;28;20048;-65
2023/10/05 01:27:47;;;;;;;12.73;3.28;;;13.00;99.90;;;;;;5052226;28;20048;-66
2023/10/05 01:30:14;;;;;;;13.55;3.10;;;13.00;99.90;;;;;;5054010;28;20127;-66
2023/10/05 01:32:44;;;;;;;9.98;2.92;;;13.00;99.90;;;;;;5052626;28;20078;-66
2023/10/05 01:35:13;;;;;;;12.52;3.55;;;13.00;99.90;;;;;;5052911;28;20076;-66
2023/10/05 01:37:46;;;;;;;12.60;3.10;;;13.00;99.90;;;;;;5052859;28;20153;-66
2023/10/05 01:42:47;;;;;;;11.00;3.50;;;12.90;99.90;;;;;;5053852;28;20129;-66
2023/10/05 01:45:15;;;;;;;10.60;3.15;;;12.90;99.90;;;;;;5019642;28;20049;-66
2023/10/05 01:47:45;;;;;;;10.02;2.85;;;13.00;99.90;;;;;;5052572;28;20083;-66
2023/10/05 01:50:24;;;;;;;11.68;3.35;;;12.90;99.90;;;;;;5052414;28;20076;-66
2023/10/05 01:53:02;;;;;;;14.27;3.55;;;12.90;99.90;;;;;;5035709;28;20037;-66
2023/10/05 01:55:30;;;;;;;12.25;3.05;;;13.00;99.90;;;;;;5052393;28;20041;-65
2023/10/05 01:57:58;;;;;;;11.95;2.97;;;13.00;99.90;;;;;;5035577;28;20041;-65
2023/10/05 02:00:25;;;;;;;7.97;2.90;;;13.00;99.90;;;;;;5053475;28;20076;-66
2023/10/05 02:02:52;;;;;;;13.13;3.42;;;13.00;99.90;;;;;;5036043;28;20549;-66
2023/10/05 02:05:20;;;;;;;11.18;2.83;;;13.00;99.90;;;;;;5052496;28;20493;-66
2023/10/05 02:07:49;;;;;;;12.48;3.10;;;13.00;99.90;;;;;;5035720;28;20489;-66
2023/10/05 02:10:19;;;;;;;10.95;3.28;;;13.00;99.90;;;;;;5051964;28;20051;-65
2023/10/05 02:12:52;;;;;;;9.55;3.10;;;13.00;99.90;;;;;;5036071;28;20099;-66
2023/10/05 02:15:19;;;;;;;11.45;3.30;;;13.00;99.90;;;;;;5052272;28;20098;-66
2023/10/05 02:17:46;;;;;;;11.20;3.13;;;13.00;99.90;;;;;;5018980;28;20158;-66
2023/10/05 02:23:27;;;;;;;13.45;3.30;;;13.00;99.90;;;;;;5034956;28;20056;-66
2023/10/05 02:26:23;;;;;;;9.43;3.15;;;13.00;99.90;;;;;;5038416;28;20048;-67
2023/10/05 02:28:55;;;;;;;13.43;3.50;;;13.00;99.90;;;;;;5052062;28;20519;-66
2023/10/05 02:31:21;;;;;;;12.00;3.10;;;13.00;99.90;;;;;;5035236;28;20053;-66
2023/10/05 02:33:47;;;;;;;12.65;3.63;;;13.00;99.90;;;;;;5035275;28;20036;-66
2023/10/05 02:36:30;;;;;;;12.70;3.40;;;13.00;99.90;;;;;;5035095;28;20045;-67
2023/10/05 02:38:56;;;;;;;11.20;3.28;;;13.00;99.90;;;;;;5036844;28;20077;-66
2023/10/05 02:41:42;;;;;;;10.40;3.47;;;13.00;99.90;;;;;;5035335;28;20509;-66
2023/10/05 02:44:22;;;;;;;13.13;3.58;;;13.00;99.90;;;;;;5051958;28;20049;-66
2023/10/05 02:46:48;;;;;;;12.27;3.55;;;13.00;99.90;;;;;;5037136;28;20048;-66
2023/10/05 02:49:19;;;;;;;13.98;3.40;;;12.90;99.90;;;;;;5053302;28;20041;-66
2023/10/05 02:51:46;;;;;;;11.80;3.35;;;13.00;99.90;;;;;;5034984;28;20039;-66
2023/10/05 02:54:12;;;;;;;10.05;3.40;;;12.90;99.90;;;;;;5034958;28;20043;-65
2023/10/05 02:56:42;;;;;;;10.63;3.47;;;12.90;99.90;;;;;;5018702;28;20138;-65
2023/10/05 02:59:09;;;;;;;14.35;3.58;;;12.90;99.90;;;;;;5035237;28;20512;-66
2023/10/05 03:01:38;;;;;;;11.18;3.70;;;12.90;99.90;;;;;;5018570;28;20037;-66
2023/10/05 03:06:41;;;;;;;12.93;3.60;;;13.00;99.90;;;;;;5051484;28;20080;-66
2023/10/05 03:09:08;;;;;;;12.57;3.78;;;13.00;99.90;;;;;;5051738;28;20045;-66
2023/10/05 03:11:46;;;;;;;13.38;3.70;;;13.00;99.90;;;;;;5034994;28;20041;-66
2023/10/05 03:14:16;;;;;;;12.45;3.60;;;13.00;99.90;;;;;;5051465;28;20029;-66
2023/10/05 03:16:47;;;;;;;12.05;3.28;;;13.10;99.90;;;;;;5035510;28;20162;-67
2023/10/05 03:19:18;;;;;;;11.93;3.50;;;13.10;99.90;;;;;;5035627;28;20088;-66
2023/10/05 03:21:45;;;;;;;11.40;3.50;;;13.10;99.90;;;;;;5051433;28;20032;-66
2023/10/05 03:24:13;;;;;;;13.63;3.85;;;13.10;99.90;;;;;;5034849;28;20055;-67
2023/10/05 03:26:42;;;;;;;12.10;4.00;;;13.10;99.90;;;;;;5019086;28;20071;-66
2023/10/05 03:29:12;;;;;;;11.07;3.88;;;13.10;99.90;;;;;;5034832;28;20053;-66
2023/10/05 03:31:52;;;;;;;14.63;4.00;;;13.10;99.90;;;;;;5051172;28;20067;-66
2023/10/05 03:34:18;;;;;;;10.45;3.90;;;13.10;99.90;;;;;;5052782;28;20044;-66
2023/10/05 03:36:47;;;;;;;9.77;3.20;;;13.10;99.90;;;;;;5034880;28;20045;-65
2023/10/05 03:39:13;;;;;;;12.77;3.58;;;13.10;99.90;;;;;;5018949;28;20128;-65
2023/10/05 03:41:39;;;;;;;14.25;4.15;;;13.00;99.90;;;;;;5018561;28;20045;-65
2023/10/05 03:44:07;;;;;;;13.02;4.15;;;13.10;99.90;;;;;;5051058;28;20171;-66
2023/10/05 03:46:34;;;;;;;15.25;4.18;;;13.00;99.90;;;;;;5035205;28;20041;-66
2023/10/05 03:49:01;;;;;;;10.48;3.72;;;13.00;99.90;;;;;;5050977;28;20045;-66
2023/10/05 03:51:28;;;;;;;13.52;3.88;;;13.00;99.90;;;;;;5056024;28;20049;-66
2023/10/05 03:53:54;;;;;;;14.65;3.70;;;13.00;99.90;;;;;;5054510;28;20040;-66
2023/10/05 03:56:23;;;;;;;10.45;3.65;;;13.00;99.90;;;;;;5054828;28;20055;-65
2023/10/05 03:58:52;;;;;;;14.88;3.75;;;12.90;99.90;;;;;;5037838;28;20045;-65
2023/10/05 04:01:18;;;;;;;17.73;4.38;;;13.00;99.90;;;;;;5037876;28;20040;-65
2023/10/05 04:03:48;;;;;;;12.07;3.95;;;12.90;99.90;;;;;;5054385;28;20037;-66
2023/10/05 04:06:17;;;;;;;12.60;3.90;;;12.90;99.90;;;;;;5054715;28;20084;-66
2023/10/05 04:08:48;;;;;;;11.18;4.28;;;12.90;99.90;;;;;;5054279;28;20044;-65
2023/10/05 04:11:19;;;;;;;11.07;3.80;;;12.90;99.90;;;;;;5054650;28;20485;-65
2023/10/05 04:13:45;;;;;;;14.15;3.65;;;12.90;99.90;;;;;;5054329;28;20501;-65
2023/10/05 04:16:18;;;;;;;12.32;3.95;;;12.90;99.90;;;;;;5054540;28;20492;-65
2023/10/05 04:18:46;;;;;;;14.43;4.03;;;12.90;99.90;;;;;;5037779;28;20037;-65
2023/10/05 04:21:15;;;;;;;11.05;3.88;;;12.90;99.90;;;;;;5054349;28;20132;-65
2023/10/05 04:23:45;;;;;;;12.45;3.63;;;12.90;99.90;;;;;;5021514;28;20546;-65
2023/10/05 04:26:10;;;;;;;10.98;3.92;;;13.00;99.90;;;;;;5054363;28;20505;-66
2023/10/05 04:28:41;;;;;;;10.85;3.58;;;13.00;99.90;;;;;;5037673;28;20049;-65
2023/10/05 04:31:13;;;;;;;12.05;3.90;;;13.00;99.90;;;;;;5037297;28;20049;-65
2023/10/05 04:33:42;;;;;;;11.15;3.65;;;13.00;99.90;;;;;;5054147;28;20048;-65
2023/10/05 04:36:09;;;;;;;13.48;3.60;;;13.10;99.90;;;;;;5037738;28;20049;-65
2023/10/05 04:38:35;;;;;;;11.13;3.53;;;13.10;99.90;;;;;;5020980;28;20040;-65
2023/10/05 04:41:01;;;;;;;11.82;3.63;;;13.10;99.90;;;;;;5020641;28;20103;-65
2023/10/05 04:43:27;;;;;;;12.82;3.70;;;13.10;99.90;;;;;;5020757;28;20489;-65
2023/10/05 04:45:52;;;;;;;13.40;3.58;;;13.20;99.90;;;;;;5037540;28;20041;-65
2023/10/05 04:48:19;;;;;;;13.18;3.42;;;13.20;99.90;;;;;;5037416;28;20041;-65
2023/10/05 04:50:49;;;;;;;14.30;3.90;;;13.20;99.90;;;;;;5036937;28;20044;-66
2023/10/05 04:53:15;;;;;;;11.40;3.45;;;13.20;99.90;;;;;;5053652;28;20041;-66
2023/10/05 04:55:42;;;;;;;10.65;3.30;;;13.20;99.90;;;;;;5020502;28;20041;-65
2023/10/05 04:58:15;;;;;;;11.20;3.35;;;13.20;99.90;;;;;;5053682;28;20120;-66
2023/10/05 05:08:34;;;;;;;13.10;3.75;;;13.20;99.90;;;;;;5053472;28;20060;-65
2023/10/05 05:11:00;;;;;;;13.88;3.58;;;13.20;99.90;;;;;;5053182;28;20040;-66
2023/10/05 05:13:27;;;;;;;16.38;3.80;;;13.20;99.90;;;;;;5053153;28;20110;-66
2023/10/05 05:15:55;;;;;;;15.57;3.47;;;13.20;99.90;;;;;;5053461;28;20478;-66
2023/10/05 05:18:21;;;;;;;16.42;3.58;;;13.20;99.90;;;;;;5036583;28;20037;-66
2023/10/05 05:20:47;;;;;;;13.20;3.40;;;13.20;99.90;;;;;;5036542;28;20132;-66
2023/10/05 05:23:16;;;;;;;13.20;3.67;;;13.20;99.90;;;;;;5036319;28;20051;-66
2023/10/05 05:25:44;;;;;;;15.25;3.80;;;13.20;99.90;;;;;;5054087;28;20043;-66
2023/10/05 05:28:10;;;;;;;15.25;3.63;;;13.30;99.90;;;;;;5036117;28;20118;-67
2023/10/05 05:30:40;;;;;;;13.65;3.53;;;13.20;99.90;;;;;;5020156;28;20044;-67
2023/10/05 05:33:10;;;;;;;14.63;3.47;;;13.30;99.90;;;;;;5052843;28;20547;-67
2023/10/05 05:35:39;;;;;;;12.95;3.63;;;13.30;99.90;;;;;;5052695;28;20048;-67
2023/10/05 05:38:09;;;;;;;13.95;3.42;;;13.30;99.90;;;;;;5036315;28;20087;-66
2023/10/05 05:40:36;;;;;;;14.57;3.58;;;13.30;99.90;;;;;;5036534;28;20037;-67
2023/10/05 05:43:11;;;;;;;13.82;3.50;;;13.30;99.90;;;;;;5052792;28;20052;-67
2023/10/05 05:45:43;;;;;;;13.25;3.63;;;13.30;99.90;;;;;;5036221;28;20044;-67
2023/10/05 05:48:13;;;;;;;13.15;3.55;;;13.20;99.90;;;;;;5052550;28;20238;-67
2023/10/05 05:50:43;;;;;;;12.43;3.53;;;13.30;99.90;;;;;;5035799;28;20102;-67
2023/10/05 05:53:12;;;;;;;15.65;3.75;;;13.30;99.90;;;;;;5035910;28;20397;-65
2023/10/05 05:55:52;;;;;;;11.38;3.70;;;13.30;99.90;;;;;;5035755;28;20123;-65
2023/10/05 05:58:19;;;;;;;11.40;3.55;;;13.20;99.90;;;;;;5052558;28;20041;-65
2023/10/05 06:00:47;;;;;;;13.77;3.88;;;13.20;99.90;;;;;;5035782;28;20049;-66
2023/10/05 06:03:14;;;;;;;12.77;3.75;;;13.20;99.90;;;;;;5019584;28;20089;-67
2023/10/05 06:05:39;;;;;;;11.95;3.63;;;13.20;99.90;;;;;;5020765;28;20127;-66
2023/10/05 06:08:11;;;;;;;15.27;3.88;;;13.20;99.90;;;;;;5055506;28;20151;-66
2023/10/05 06:10:37;;;;;;;12.50;4.00;;;13.20;99.90;;;;;;5039612;28;20117;-66
2023/10/05 06:13:05;;;;;;;16.15;4.00;;;13.20;99.90;;;;;;5071062;28;20456;-66
2023/10/05 06:15:31;;;;;;;14.60;3.72;;;13.20;99.90;;;;;;5073352;28;20044;-66
2023/10/05 06:18:00;;;;;;;13.20;3.67;;;13.20;99.90;;;;;;5072236;28;20071;-66
2023/10/05 06:20:26;;;;;;;12.45;3.97;;;13.20;99.90;;;;;;5055707;28;20043;-65
2023/10/05 06:22:54;;;;;;;15.18;3.92;;;13.20;99.90;;;;;;5039224;28;20033;-72
2023/10/05 06:25:20;;;;;;;15.18;3.50;;;13.30;99.90;;;;;;5039156;28;20044;-73
2023/10/05 06:27:51;;;;;;;14.68;3.67;;;13.30;99.90;;;;;;5039434;28;20127;-73
2023/10/05 06:30:17;;;;;;;10.05;3.35;;;13.40;99.90;;;;;;5072710;28;20106;-72
2023/10/05 06:32:43;;;;;;;14.20;3.58;;;13.50;99.90;;;;;;5073108;28;20086;-73
2023/10/05 06:35:13;;;;;;;15.65;3.75;;;13.50;99.90;;;;;;5055895;28;20049;-73
2023/10/05 06:37:40;;;;;;;12.95;3.35;;;13.50;99.90;;;;;;5055973;28;20040;-73
2023/10/05 06:40:12;;;;;;;14.73;3.80;;;13.60;99.90;;;;;;5072579;28;20047;-73
2023/10/05 06:42:42;;;;;;;18.08;3.60;;;13.60;99.90;;;;;;5056316;28;20075;-73
2023/10/05 06:45:16;;;;;;;16.27;3.70;;;13.60;99.90;;;;;;5039755;28;20041;-73
2023/10/05 06:47:42;;;;;;;14.68;3.70;;;13.60;99.90;;;;;;5056279;28;20083;-73
2023/10/05 06:50:09;;;;;;;12.80;3.50;;;13.70;99.90;;;;;;5039798;28;20401;-73
2023/10/05 06:52:40;;;;;;;12.77;3.60;;;13.60;99.90;;;;;;5072817;28;20045;-73
2023/10/05 06:55:08;;;;;;;17.83;3.90;;;13.70;99.90;;;;;;5073036;28;20044;-72
2023/10/05 06:57:36;;;;;;;13.73;3.60;;;13.80;99.90;;;;;;5056284;28;20488;-73
2023/10/05 07:00:20;;;;;;;16.88;3.60;;;13.80;99.90;;;;;;5056055;28;20045;-71
2023/10/05 07:02:50;;;;;;;13.60;4.00;;;13.90;99.90;;;;;;5072803;28;20499;-73
2023/10/05 07:05:17;;;;;;;14.80;3.75;;;13.90;99.90;;;;;;5072687;28;20032;-72
2023/10/05 07:07:44;;;;;;;12.60;3.17;;;14.00;99.90;;;;;;5071755;28;20044;-66
2023/10/05 07:10:14;;;;;;;13.30;3.47;;;14.00;99.90;;;;;;5036774;28;20586;-66
2023/10/05 07:12:46;;;;;;;14.10;3.80;;;14.10;99.90;;;;;;5067062;28;20146;-66
2023/10/05 07:15:20;;;;;;;10.23;3.30;;;14.10;99.90;;;;;;5055875;28;20503;-66
2023/10/05 07:17:52;;;;;;;11.50;3.35;;;14.10;99.90;;;;;;5071276;28;20036;-66
2023/10/05 07:20:19;;;;;;;14.52;3.35;;;14.10;99.90;;;;;;5038767;28;20036;-66
2023/10/05 07:22:47;;;;;;;15.57;4.00;;;14.10;99.90;;;;;;5071349;28;20032;-66
2023/10/05 07:25:21;;;;;;;13.70;3.55;;;14.20;99.90;;;;;;5073168;28;20082;-65
2023/10/05 07:27:50;;;;;;;12.25;3.13;;;14.30;99.90;;;;;;5058225;28;20052;-66
2023/10/05 07:30:16;;;;;;;14.60;4.05;;;14.30;99.90;;;;;;5058437;28;20040;-66
2023/10/05 07:32:42;;;;;;;14.63;3.50;;;14.30;99.90;;;;;;5058231;28;20040;-66
2023/10/05 07:35:12;;;;;;;11.85;3.50;;;14.30;99.90;;;;;;5058519;28;20075;-66
2023/10/05 07:37:38;;;;;;;11.63;3.38;;;14.40;99.90;;;;;;5074926;28;20103;-65
2023/10/05 07:40:07;;;;;;;13.48;3.58;;;14.40;99.90;;;;;;5074888;28;20484;-66
2023/10/05 07:42:33;;;;;;;11.13;3.38;;;14.50;99.90;;;;;;5042188;28;20037;-66
2023/10/05 07:45:00;;;;;;;13.57;3.40;;;14.50;99.90;;;;;;5074775;28;20049;-66
2023/10/05 07:47:26;;;;;;;12.43;3.80;;;14.50;99.90;;;;;;5058428;28;20079;-67
2023/10/05 07:49:53;;;;;;;13.23;3.38;;;14.60;99.90;;;;;;5074927;28;20438;-66
2023/10/05 07:52:19;;;;;;;11.02;3.50;;;14.60;99.90;;;;;;5074979;28;20091;-66
2023/10/05 07:54:46;;;;;;;13.27;3.80;;;14.60;99.90;;;;;;5074525;28;20063;-66
2023/10/05 07:57:13;;;;;;;10.82;3.50;;;14.70;99.90;;;;;;5074912;28;20507;-66
2023/10/05 07:59:43;;;;;;;13.02;3.88;;;14.70;99.90;;;;;;5041268;28;20123;-66
2023/10/05 08:02:14;;;;;;;12.98;4.45;;;14.80;99.90;;;;;;5058435;28;20072;-66
2023/10/05 08:04:41;;;;;;;15.73;3.75;;;14.80;99.90;;;;;;5057690;28;20060;-65
2023/10/05 08:07:08;;;;;;;12.82;3.92;;;14.90;99.90;;;;;;5057846;28;20045;-66
2023/10/05 08:09:34;;;;;;;13.18;3.60;;;15.00;99.90;;;;;;5074307;28;20044;-65
2023/10/05 08:12:00;;;;;;;14.30;3.95;;;15.00;99.90;;;;;;5074196;28;20040;-65
2023/10/05 08:14:30;;;;;;;11.10;3.63;;;15.10;99.90;;;;;;5074256;28;20036;-66
2023/10/05 08:16:57;;;;;;;12.63;3.58;;;15.10;99.90;;;;;;5074571;28;20040;-66
2023/10/05 08:19:24;;;;;;;14.45;3.40;;;15.10;99.90;;;;;;5058047;28;20047;-66
2023/10/05 08:21:54;;;;;;;12.13;3.65;;;15.20;99.90;;;;;;5074314;28;20048;-67
2023/10/05 08:24:23;;;;;;;10.63;3.17;;;15.20;99.90;;;;;;5057400;28;20049;-66
2023/10/05 08:26:56;;;;;;;14.90;3.90;;;15.20;99.90;;;;;;5041194;28;20071;-67
2023/10/05 08:29:22;;;;;;;14.07;3.45;;;15.20;99.90;;;;;;5074205;28;20489;-67
2023/10/05 08:31:52;;;;;;;12.85;3.55;;;15.30;99.90;;;;;;5074071;28;20036;-67
2023/10/05 08:34:21;;;;;;;11.68;3.60;;;15.40;99.90;;;;;;5073763;28;20060;-68
2023/10/05 08:36:53;;;;;;;17.92;4.10;;;15.50;99.90;;;;;;5056211;28;20032;-65
2023/10/05 08:39:26;;;;;;;13.98;3.60;;;15.60;99.90;;;;;;5073876;28;20039;-67
2023/10/05 08:42:02;;;;;;;12.82;3.75;;;15.70;99.90;;;;;;5057071;28;20090;-67
2023/10/05 08:44:30;;;;;;;14.90;3.88;;;15.80;99.90;;;;;;5073564;28;20044;-67
2023/10/05 08:47:00;;;;;;;15.63;3.50;;;15.90;99.90;;;;;;5057354;28;20053;-66
2023/10/05 08:49:27;;;;;;;13.85;3.58;;;15.90;99.90;;;;;;5073835;28;20051;-66
2023/10/05 08:51:53;;;;;;;13.27;3.53;;;16.00;99.90;;;;;;5073411;28;20087;-66
2023/10/05 08:54:28;;;;;;;12.20;3.72;;;16.00;99.90;;;;;;5056648;28;20076;-66
2023/10/05 08:56:59;;;;;;;13.48;3.70;;;16.00;99.90;;;;;;5053252;28;20037;-68
2023/10/05 08:59:26;;;;;;;13.88;3.95;;;16.00;99.90;;;;;;5053016;28;20546;-67
2023/10/05 09:01:55;;;;;;;14.82;3.95;;;15.90;99.90;;;;;;5053717;28;20044;-67
2023/10/05 09:07:14;;;;;;;14.48;3.40;;;16.00;99.90;;;;;;5054047;28;20075;-67
2023/10/05 09:09:54;;;;;;;12.20;3.60;;;16.00;99.90;;;;;;5053274;28;20106;-67
2023/10/05 09:12:35;;;;;;;13.55;3.90;;;16.00;99.90;;;;;;5038666;28;20056;-65
2023/10/05 09:15:08;;;;;;;11.88;3.55;;;16.10;99.90;;;;;;5036559;28;20045;-65
2023/10/05 09:17:34;;;;;;;14.38;3.78;;;16.20;99.90;;;;;;5053304;28;20049;-67
2023/10/05 09:20:22;;;;;;;15.75;3.83;;;16.20;99.90;;;;;;5020260;28;20049;-67
2023/10/05 09:22:54;;;;;;;14.05;3.42;;;16.20;99.90;;;;;;5053293;28;20496;-66
2023/10/05 09:25:27;;;;;;;16.05;3.58;;;16.20;99.90;;;;;;5036515;28;20040;-67
2023/10/05 09:28:09;;;;;;;14.13;3.50;;;16.20;99.90;;;;;;5052787;28;20497;-67
2023/10/05 09:30:59;;;;;;;16.52;4.10;;;16.10;99.90;;;;;;5053247;28;20076;-66
2023/10/05 09:33:27;;;;;;;16.85;4.03;;;16.00;99.90;;;;;;5036306;28;20528;-67
2023/10/05 09:36:01;;;;;;;14.95;3.95;;;15.90;99.90;;;;;;5053079;28;20041;-67
2023/10/05 09:38:30;;;;;;;14.20;3.80;;;15.90;99.90;;;;;;5052786;28;20127;-67
2023/10/05 09:41:02;;;;;;;16.60;4.28;;;15.80;99.90;;;;;;5052770;28;20041;-67
2023/10/05 09:43:31;;;;;;;;;;;15.90;99.90;;;;;;5036384;28;20041;-67
2023/10/05 09:45:58;;;;;;;16.92;4.20;;;15.90;99.90;;;;;;5036208;28;20384;-67
2023/10/05 09:48:25;;;;;;;13.25;4.10;;;15.90;99.90;;;;;;5035746;28;20052;-67
2023/10/05 09:50:52;;;;;;;14.10;4.28;;;15.90;99.90;;;;;;5035685;28;20041;-67
2023/10/05 09:53:19;;;;;;;17.27;4.63;;;15.90;99.90;;;;;;5052617;28;20045;-67
2023/10/05 09:55:59;;;;;;;15.80;4.20;;;15.90;99.90;;;;;;5035864;28;20037;-67
2023/10/05 09:58:25;;;;;;;14.82;4.25;;;16.00;99.90;;;;;;5052364;28;20080;-67
2023/10/05 10:00:55;;;;;;;13.60;4.45;;;16.00;99.90;;;;;;5019661;28;20469;-67
2023/10/05 10:03:21;;;;;;;16.42;4.32;;;16.00;99.90;;;;;;5035986;28;20045;-68
2023/10/05 10:06:09;;;;;;;15.20;4.20;;;16.00;99.90;;;;;;5028450;28;20098;-68
2023/10/05 10:08:53;;;;;;;15.00;4.40;;;16.00;99.90;;;;;;5035750;28;20059;-67
2023/10/05 10:11:24;;;;;;;14.48;4.35;;;15.90;99.90;;;;;;5052157;28;20111;-67
2023/10/05 10:14:05;;;;;;;16.63;4.43;;;15.90;99.90;;;;;;5019603;28;20044;-67
2023/10/05 10:16:39;;;;;;;15.95;4.57;;;15.90;99.90;;;;;;5051977;28;20047;-67
2023/10/05 10:19:22;;;;;;;11.93;4.38;;;15.90;99.90;;;;;;5053271;28;20115;-67
2023/10/05 10:21:53;;;;;;;14.57;4.63;;;16.00;99.90;;;;;;5051977;28;20098;-67
2023/10/05 10:24:19;;;;;;;19.50;4.13;;;16.10;99.90;;;;;;5035555;28;20041;-67
2023/10/05 10:27:07;;;;;;;12.25;4.00;;;16.20;99.90;;;;;;5051709;28;20099;-67
2023/10/05 10:29:53;;;;;;;15.10;4.20;;;16.20;99.90;;;;;;5052354;28;20489;-67
2023/10/05 10:32:31;;;;;;;13.52;4.30;;;16.20;99.90;;;;;;5052131;28;20102;-67
2023/10/05 10:35:09;;;;;;;16.50;4.68;;;16.30;99.90;;;;;;5036235;28;20048;-68
2023/10/05 10:37:48;;;;;;;16.13;5.10;;;16.30;99.90;;;;;;5052602;28;20524;-71
2023/10/05 10:45:33;;;;;;;17.40;5.00;;;16.10;99.90;;;;;;5052403;28;20068;-71
2023/10/05 10:48:00;;;;;;;13.75;4.63;;;16.10;99.90;;;;;;5052143;28;20039;-71
2023/10/05 10:50:30;;;;;;;14.82;4.75;;;16.10;99.90;;;;;;5052518;28;20045;-72
2023/10/05 10:52:58;;;;;;;15.80;4.90;;;16.10;99.90;;;;;;5052628;28;20128;-71
2023/10/05 10:55:39;;;;;;;13.68;5.03;;;16.00;99.90;;;;;;5052491;28;20488;-71
2023/10/05 10:58:13;;;;;;;19.02;5.25;;;16.10;99.90;;;;;;5052346;28;20044;-71
2023/10/05 11:00:55;;;;;;;17.90;5.30;;;16.00;99.90;;;;;;5054849;28;20512;-71
2023/10/05 11:03:25;;;;;;;15.25;4.90;;;16.00;99.90;;;;;;5025634;28;20094;-71
2023/10/05 11:05:52;;;;;;;14.90;5.00;;;16.00;99.90;;;;;;5056029;28;20126;-71
2023/10/05 11:08:21;;;;;;;18.70;5.28;;;16.00;99.90;;;;;;5055887;28;20048;-72
2023/10/05 11:11:15;;;;;;;19.30;5.68;;;15.90;99.90;;;;;;5056039;28;20041;-70
2023/10/05 11:13:43;;;;;;;16.58;5.10;;;15.80;99.90;;;;;;5055775;28;20045;-71
2023/10/05 11:16:09;;;;;;;10.80;4.70;;;15.80;99.90;;;;;;5056168;28;20041;-71
2023/10/05 11:18:39;;;;;;;9.48;2.90;;;15.80;99.90;;;;;;5055892;28;20044;-71
2023/10/05 11:21:17;;;;;;;7.80;3.05;;;15.70;99.90;;;;;;5039758;28;20036;-72
2023/10/05 11:23:48;;;;;;;10.55;3.05;;;15.70;99.90;;;;;;5056280;28;20041;-72
2023/10/05 11:26:17;;;;;;;7.70;2.83;;;15.60;99.90;;;;;;5056302;28;20055;-72
2023/10/05 11:28:49;;;;;;;7.28;2.92;;;15.60;99.90;;;;;;5056228;28;20052;-72
2023/10/05 11:31:21;;;;;;;6.85;2.42;;;15.60;99.90;;;;;;5040085;28;20099;-72
2023/10/05 11:33:53;;;;;;;6.85;2.35;;;15.60;99.90;;;;;;5055995;28;20048;-71
2023/10/05 11:36:39;;;;;;;7.88;2.60;;;15.60;99.90;;;;;;5039419;28;20037;-68
2023/10/05 11:39:26;;;;;;;7.82;2.80;;;15.70;99.90;;;;;;5054963;28;20094;-69
2023/10/05 11:41:59;;;;;;;6.47;2.28;;;15.70;99.90;;;;;;5038331;28;20044;-69
2023/10/05 11:44:25;;;;;;;8.45;3.05;;;15.70;99.90;;;;;;5054839;28;20060;-67
2023/10/05 11:46:53;;;;;;;9.13;3.13;;;15.80;99.90;;;;;;5056194;28;20052;-67
2023/10/05 11:49:20;;;;;;;8.60;3.05;;;15.80;99.90;;;;;;5054746;28;20045;-68
2023/10/05 11:51:56;;;;;;;8.73;3.15;;;15.90;99.90;;;;;;5038387;28;20420;-67
2023/10/05 11:54:30;;;;;;;10.38;3.40;;;15.90;99.90;;;;;;5054645;28;20493;-67
2023/10/05 11:57:00;;;;;;;9.10;3.60;;;16.00;99.90;;;;;;5038229;28;20041;-67
2023/10/05 11:59:31;;;;;;;11.27;3.97;;;16.00;99.90;;;;;;5038224;28;20481;-68
2023/10/05 12:01:57;;;;;;;12.05;3.80;;;16.00;99.90;;;;;;5054523;28;20044;-69
2023/10/05 12:04:29;;;;;;;12.63;3.75;;;16.10;99.90;;;;;;5037833;28;20041;-68
2023/10/05 12:06:58;;;;;;;12.65;4.10;;;16.00;99.90;;;;;;5038040;28;20049;-68
2023/10/05 12:09:32;;;;;;;15.20;4.57;;;16.10;99.90;;;;;;5037848;28;20103;-68
2023/10/05 12:12:10;;;;;;;12.32;3.85;;;16.20;99.90;;;;;;5038092;28;20055;-68
2023/10/05 12:14:36;;;;;;;13.02;3.80;;;16.20;99.90;;;;;;5037656;28;20044;-67
2023/10/05 12:17:05;;;;;;;11.27;3.75;;;16.20;99.90;;;;;;5054231;28;20037;-68
2023/10/05 12:19:33;;;;;;;10.43;3.58;;;16.30;99.90;;;;;;5037924;28;20547;-68
2023/10/05 12:22:05;;;;;;;10.27;3.58;;;16.50;99.90;;;;;;5037907;28;20110;-69
2023/10/05 12:24:33;;;;;;;12.18;3.88;;;16.60;99.90;;;;;;5021804;28;20041;-68
2023/10/05 12:26:59;;;;;;;12.25;3.67;;;16.70;99.90;;;;;;5021389;28;20059;-67
2023/10/05 12:29:29;;;;;;;10.30;3.47;;;16.90;99.90;;;;;;5037811;28;20519;-68
2023/10/05 12:32:00;;;;;;;10.38;3.45;;;17.00;99.90;;;;;;5054398;28;20043;-67
2023/10/05 12:34:27;;;;;;;12.03;3.50;;;17.20;99.90;;;;;;5037608;28;20094;-67
2023/10/05 12:36:56;;;;;;;11.80;3.40;;;17.30;99.90;;;;;;5021507;28;20047;-68
2023/10/05 12:39:27;;;;;;;11.30;3.30;;;17.40;99.90;;;;;;5037147;28;20102;-67
2023/10/05 12:41:54;;;;;;;12.27;3.40;;;17.50;99.90;;;;;;5021724;28;20037;-68
2023/10/05 12:44:21;;;;;;;14.80;3.80;;;17.60;99.90;;;;;;5037714;28;20511;-67
2023/10/05 12:46:47;;;;;;;11.63;3.45;;;17.60;99.90;;;;;;5037421;28;20397;-66
2023/10/05 12:49:16;;;;;;;13.85;3.70;;;17.70;99.90;;;;;;5053859;28;20048;-67
2023/10/05 12:51:45;;;;;;;11.82;3.60;;;17.70;99.90;;;;;;5054085;28;20084;-67
2023/10/05 12:54:30;;;;;;;12.63;3.88;;;17.80;99.90;;;;;;5036926;28;20041;-67
2023/10/05 12:56:57;;;;;;;14.68;3.30;;;17.90;99.90;;;;;;5021357;28;20051;-73
2023/10/05 12:59:24;;;;;;;12.32;3.45;;;17.90;99.90;;;;;;5037485;28;20045;-73
2023/10/05 13:01:51;;;;;;;11.57;3.20;;;18.00;99.90;;;;;;5024392;28;20092;-73
2023/10/05 13:04:17;;;;;;;11.88;3.10;;;18.10;99.90;;;;;;5059034;28;20131;-74
2023/10/05 13:06:47;;;;;;;11.10;3.40;;;18.10;99.90;;;;;;5041534;28;20052;-73
2023/10/05 13:09:13;;;;;;;12.13;2.97;;;18.10;99.90;;;;;;5057920;28;20067;-73
2023/10/05 13:11:51;;;;;;;16.08;3.55;;;18.10;99.90;;;;;;5057931;28;20412;-74
2023/10/05 13:14:19;;;;;;;11.23;3.13;;;18.00;99.90;;;;;;5058175;28;20044;-73
2023/10/05 13:16:48;;;;;;;10.93;2.80;;;17.90;99.90;;;;;;5058574;28;20079;-73
2023/10/05 13:19:14;;;;;;;11.52;3.10;;;17.80;99.90;;;;;;5058755;28;20037;-73
2023/10/05 13:21:42;;;;;;;11.50;3.00;;;17.70;99.90;;;;;;5057973;28;20044;-73
2023/10/05 13:24:11;;;;;;;10.55;3.00;;;17.60;99.90;;;;;;5058083;28;20048;-73
2023/10/05 13:26:49;;;;;;;10.65;3.08;;;17.60;99.90;;;;;;5057666;28;20116;-72
2023/10/05 13:29:18;;;;;;;11.05;2.85;;;17.50;99.90;;;;;;5058217;28;20051;-73